ITY64C ESGG-EDDB
Flight info
| Callsign | ITY64C |
|---|---|
| Flight time | 1h 2m |
| Altitude | 39000 |
| Route | TOPLA L996 ATRIB DCT SALLO DCT USEDU Z14 BEKBA T280 KETAP KETAP1R |
| Aircraft | A339/H-SADE1E2E3GHIJ3J5M1P2RWXY/LB2D1 |
Departure
| Time | 2026-05-07 16:51 |
|---|---|
| Airport | Göteborg Landvetter Airport (ESGG) |
Arrival
| Time | 2026-05-07 17:53 |
|---|---|
| Airport | Berlin Brandenburg Airport (EDDB) |
| Time | Latitude | Longitude | Altitude | Speed | Heading |
|---|---|---|---|---|---|
| 2026-05-07 16:24 | 57.66671 | 12.29209 | 522 ft | 0 kts | 116° |
| 2026-05-07 16:40 | 57.66676 | 12.29189 | 522 ft | 4 kts | 116° |
| 2026-05-07 16:41 | 57.66687 | 12.29150 | 522 ft | 2 kts | 116° |
| 2026-05-07 16:41 | 57.66696 | 12.29116 | 522 ft | 4 kts | 77° |
| 2026-05-07 16:41 | 57.66689 | 12.29078 | 522 ft | 4 kts | 40° |
| 2026-05-07 16:41 | 57.66672 | 12.29053 | 522 ft | 0 kts | 26° |
| 2026-05-07 16:45 | 57.66677 | 12.29058 | 522 ft | 2 kts | 26° |
| 2026-05-07 16:45 | 57.66702 | 12.29082 | 522 ft | 6 kts | 27° |
| 2026-05-07 16:45 | 57.66750 | 12.29105 | 522 ft | 8 kts | 359° |
| 2026-05-07 16:46 | 57.66788 | 12.29042 | 522 ft | 8 kts | 307° |
| 2026-05-07 16:46 | 57.66813 | 12.28952 | 522 ft | 8 kts | 290° |
| 2026-05-07 16:46 | 57.66861 | 12.28877 | 519 ft | 12 kts | 351° |
| 2026-05-07 16:46 | 57.66968 | 12.28949 | 520 ft | 20 kts | 25° |
| 2026-05-07 16:47 | 57.67119 | 12.29086 | 520 ft | 27 kts | 26° |
| 2026-05-07 16:47 | 57.67266 | 12.29219 | 521 ft | 20 kts | 26° |
| 2026-05-07 16:47 | 57.67368 | 12.29312 | 521 ft | 13 kts | 26° |
| 2026-05-07 16:47 | 57.67439 | 12.29324 | 521 ft | 7 kts | 338° |
| 2026-05-07 16:48 | 57.67451 | 12.29293 | 521 ft | 0 kts | 304° |
| 2026-05-07 16:48 | 57.67454 | 12.29277 | 521 ft | 4 kts | 295° |
| 2026-05-07 16:49 | 57.67455 | 12.29181 | 520 ft | 11 kts | 264° |
| 2026-05-07 16:49 | 57.67431 | 12.29052 | 521 ft | 10 kts | 237° |
| 2026-05-07 16:49 | 57.67381 | 12.28982 | 521 ft | 5 kts | 208° |
| 2026-05-07 16:49 | 57.67380 | 12.28981 | 521 ft | 0 kts | 208° |
| 2026-05-07 16:50 | 57.67361 | 12.28962 | 521 ft | 20 kts | 208° |
| 2026-05-07 16:50 | 57.66942 | 12.28577 | 520 ft | 113 kts | 206° |
| 2026-05-07 16:50 | 57.66002 | 12.27738 | 588 ft | 177 kts | 208° |
| 2026-05-07 16:51 | 57.64845 | 12.26770 | 1408 ft | 185 kts | 206° |
| 2026-05-07 16:51 | 57.63641 | 12.25813 | 2316 ft | 192 kts | 204° |
| 2026-05-07 16:51 | 57.62390 | 12.24724 | 2977 ft | 204 kts | 210° |
| 2026-05-07 16:51 | 57.61088 | 12.23401 | 3564 ft | 223 kts | 210° |
| 2026-05-07 16:52 | 57.60615 | 12.22918 | 3745 ft | 231 kts | 209° |
| 2026-05-07 16:52 | 57.59647 | 12.21930 | 4124 ft | 243 kts | 208° |
| 2026-05-07 16:52 | 57.58596 | 12.21072 | 4410 ft | 256 kts | 195° |
| 2026-05-07 16:52 | 57.56795 | 12.20954 | 5008 ft | 263 kts | 167° |
| 2026-05-07 16:53 | 57.55067 | 12.22104 | 5793 ft | 266 kts | 159° |
| 2026-05-07 16:53 | 57.53286 | 12.23113 | 6532 ft | 270 kts | 166° |
| 2026-05-07 16:53 | 57.51436 | 12.23820 | 7262 ft | 273 kts | 171° |
| 2026-05-07 16:53 | 57.49543 | 12.24373 | 7994 ft | 277 kts | 173° |
| 2026-05-07 16:54 | 57.47620 | 12.24873 | 8733 ft | 281 kts | 174° |
| 2026-05-07 16:54 | 57.45664 | 12.25371 | 9512 ft | 285 kts | 174° |
| 2026-05-07 16:54 | 57.43694 | 12.25871 | 10290 ft | 288 kts | 174° |
| 2026-05-07 16:54 | 57.41747 | 12.26383 | 10643 ft | 305 kts | 173° |
| 2026-05-07 16:55 | 57.39568 | 12.26959 | 10862 ft | 327 kts | 173° |
| 2026-05-07 16:55 | 57.37263 | 12.27581 | 11246 ft | 339 kts | 173° |
| 2026-05-07 16:55 | 57.34907 | 12.28219 | 11915 ft | 342 kts | 173° |
| 2026-05-07 16:55 | 57.32539 | 12.28858 | 12587 ft | 346 kts | 173° |
| 2026-05-07 16:56 | 57.30516 | 12.29403 | 13141 ft | 349 kts | 173° |
| 2026-05-07 16:56 | 57.28098 | 12.30053 | 13797 ft | 353 kts | 173° |
| 2026-05-07 16:56 | 57.23192 | 12.31363 | 14995 ft | 359 kts | 174° |
| 2026-05-07 16:57 | 57.20703 | 12.32024 | 15599 ft | 362 kts | 174° |
| 2026-05-07 16:57 | 57.18289 | 12.32664 | 16172 ft | 365 kts | 174° |
| 2026-05-07 16:57 | 57.15758 | 12.33335 | 16759 ft | 368 kts | 174° |
| 2026-05-07 16:57 | 57.13207 | 12.34011 | 17341 ft | 372 kts | 174° |
| 2026-05-07 16:58 | 57.10633 | 12.34672 | 17914 ft | 375 kts | 174° |
| 2026-05-07 16:58 | 57.08033 | 12.35313 | 18488 ft | 378 kts | 174° |
| 2026-05-07 16:58 | 57.05449 | 12.35945 | 18990 ft | 381 kts | 174° |
| 2026-05-07 16:58 | 57.02807 | 12.36591 | 19501 ft | 384 kts | 174° |
| 2026-05-07 16:59 | 57.00154 | 12.37244 | 20007 ft | 387 kts | 174° |
| 2026-05-07 16:59 | 56.97468 | 12.37907 | 20527 ft | 390 kts | 174° |
| 2026-05-07 16:59 | 56.94788 | 12.38570 | 21031 ft | 393 kts | 174° |
| 2026-05-07 16:59 | 56.92061 | 12.39243 | 21548 ft | 397 kts | 174° |
| 2026-05-07 17:00 | 56.89321 | 12.39918 | 22055 ft | 400 kts | 174° |
| 2026-05-07 17:00 | 56.86541 | 12.40598 | 22551 ft | 404 kts | 174° |
| 2026-05-07 17:00 | 56.83736 | 12.41287 | 23094 ft | 407 kts | 174° |
| 2026-05-07 17:00 | 56.80929 | 12.41977 | 23596 ft | 410 kts | 174° |
| 2026-05-07 17:01 | 56.78089 | 12.42673 | 24053 ft | 413 kts | 174° |
| 2026-05-07 17:01 | 56.75227 | 12.43373 | 24511 ft | 416 kts | 174° |
| 2026-05-07 17:01 | 56.72351 | 12.44072 | 24975 ft | 418 kts | 174° |
| 2026-05-07 17:01 | 56.69528 | 12.44759 | 25414 ft | 421 kts | 174° |
| 2026-05-07 17:02 | 56.66576 | 12.45477 | 25837 ft | 424 kts | 174° |
| 2026-05-07 17:02 | 56.63835 | 12.46144 | 26243 ft | 427 kts | 174° |
| 2026-05-07 17:02 | 56.60905 | 12.46855 | 26665 ft | 430 kts | 174° |
| 2026-05-07 17:02 | 56.57927 | 12.47575 | 27075 ft | 433 kts | 174° |
| 2026-05-07 17:03 | 56.54929 | 12.48300 | 27507 ft | 436 kts | 174° |
| 2026-05-07 17:03 | 56.51949 | 12.49019 | 27910 ft | 439 kts | 174° |
| 2026-05-07 17:03 | 56.48905 | 12.49753 | 28316 ft | 442 kts | 173° |
| 2026-05-07 17:03 | 56.45893 | 12.50476 | 28701 ft | 444 kts | 173° |
| 2026-05-07 17:04 | 56.42828 | 12.51311 | 29062 ft | 448 kts | 169° |
| 2026-05-07 17:04 | 56.39853 | 12.52729 | 29436 ft | 451 kts | 162° |
| 2026-05-07 17:04 | 56.36879 | 12.54554 | 29801 ft | 454 kts | 161° |
| 2026-05-07 17:04 | 56.33882 | 12.56389 | 30179 ft | 456 kts | 162° |
| 2026-05-07 17:05 | 56.30895 | 12.58200 | 30494 ft | 459 kts | 162° |
| 2026-05-07 17:05 | 56.28262 | 12.59785 | 30796 ft | 461 kts | 162° |
| 2026-05-07 17:05 | 56.25207 | 12.61616 | 31133 ft | 464 kts | 162° |
| 2026-05-07 17:05 | 56.22135 | 12.63450 | 31491 ft | 467 kts | 162° |
| 2026-05-07 17:06 | 56.19044 | 12.65292 | 31800 ft | 469 kts | 161° |
| 2026-05-07 17:06 | 56.15935 | 12.67139 | 32240 ft | 469 kts | 161° |
| 2026-05-07 17:06 | 56.12863 | 12.68963 | 32477 ft | 474 kts | 161° |
| 2026-05-07 17:06 | 56.09690 | 12.70844 | 32707 ft | 477 kts | 161° |
| 2026-05-07 17:07 | 56.06562 | 12.72696 | 32941 ft | 480 kts | 161° |
| 2026-05-07 17:07 | 56.03397 | 12.74567 | 33272 ft | 479 kts | 161° |
| 2026-05-07 17:07 | 56.00230 | 12.76436 | 33430 ft | 482 kts | 161° |
| 2026-05-07 17:07 | 55.97029 | 12.78321 | 33554 ft | 485 kts | 161° |
| 2026-05-07 17:08 | 55.93824 | 12.80206 | 33786 ft | 485 kts | 161° |
| 2026-05-07 17:08 | 55.90619 | 12.82087 | 34063 ft | 484 kts | 161° |
| 2026-05-07 17:08 | 55.87423 | 12.83958 | 34349 ft | 481 kts | 161° |
| 2026-05-07 17:08 | 55.84249 | 12.85814 | 34583 ft | 480 kts | 161° |
| 2026-05-07 17:09 | 55.81073 | 12.87669 | 34742 ft | 481 kts | 161° |
| 2026-05-07 17:09 | 55.77898 | 12.89520 | 34990 ft | 479 kts | 161° |
| 2026-05-07 17:09 | 55.74717 | 12.91372 | 35126 ft | 481 kts | 161° |
| 2026-05-07 17:09 | 55.71573 | 12.93198 | 35397 ft | 478 kts | 162° |
| 2026-05-07 17:10 | 55.68409 | 12.95033 | 35625 ft | 477 kts | 162° |
| 2026-05-07 17:10 | 55.65658 | 12.96625 | 35688 ft | 480 kts | 162° |
| 2026-05-07 17:10 | 55.62493 | 12.98454 | 36020 ft | 476 kts | 162° |
| 2026-05-07 17:10 | 55.59357 | 13.00264 | 36359 ft | 472 kts | 163° |
| 2026-05-07 17:11 | 55.56241 | 13.02062 | 36559 ft | 471 kts | 163° |
| 2026-05-07 17:11 | 55.53158 | 13.03837 | 36747 ft | 471 kts | 163° |
| 2026-05-07 17:11 | 55.50042 | 13.05626 | 36923 ft | 471 kts | 163° |
| 2026-05-07 17:11 | 55.46923 | 13.07414 | 37125 ft | 471 kts | 163° |
| 2026-05-07 17:12 | 55.43811 | 13.09195 | 37316 ft | 470 kts | 163° |
| 2026-05-07 17:12 | 55.40697 | 13.10974 | 37503 ft | 470 kts | 163° |
| 2026-05-07 17:12 | 55.37600 | 13.12742 | 37691 ft | 470 kts | 163° |
| 2026-05-07 17:12 | 55.34511 | 13.14502 | 37880 ft | 469 kts | 163° |
| 2026-05-07 17:13 | 55.31405 | 13.16269 | 38058 ft | 469 kts | 163° |
| 2026-05-07 17:13 | 55.28316 | 13.18022 | 38255 ft | 469 kts | 163° |
| 2026-05-07 17:13 | 55.25213 | 13.19782 | 38436 ft | 468 kts | 164° |
| 2026-05-07 17:13 | 55.22115 | 13.21535 | 38636 ft | 468 kts | 164° |
| 2026-05-07 17:14 | 55.19019 | 13.23285 | 38810 ft | 467 kts | 164° |
| 2026-05-07 17:14 | 55.15928 | 13.25028 | 38953 ft | 467 kts | 164° |
| 2026-05-07 17:14 | 55.12871 | 13.26750 | 39067 ft | 467 kts | 164° |
| 2026-05-07 17:14 | 55.09770 | 13.28493 | 39118 ft | 468 kts | 164° |
| 2026-05-07 17:15 | 55.03613 | 13.31946 | 39122 ft | 466 kts | 164° |
| 2026-05-07 17:15 | 54.97490 | 13.35368 | 39121 ft | 466 kts | 164° |
| 2026-05-07 17:16 | 54.91320 | 13.38807 | 39123 ft | 466 kts | 164° |
| 2026-05-07 17:16 | 54.85230 | 13.42485 | 39121 ft | 467 kts | 162° |
| 2026-05-07 17:17 | 54.79136 | 13.46305 | 39122 ft | 467 kts | 162° |
| 2026-05-07 17:17 | 54.73011 | 13.50081 | 39121 ft | 467 kts | 162° |
| 2026-05-07 17:18 | 54.66890 | 13.53821 | 39125 ft | 467 kts | 162° |
| 2026-05-07 17:18 | 54.60752 | 13.57557 | 39115 ft | 467 kts | 162° |
| 2026-05-07 17:19 | 54.54641 | 13.61265 | 39122 ft | 466 kts | 162° |
| 2026-05-07 17:19 | 54.48520 | 13.64967 | 39119 ft | 466 kts | 162° |
| 2026-05-07 17:20 | 54.42409 | 13.68652 | 39124 ft | 466 kts | 162° |
| 2026-05-07 17:20 | 54.36324 | 13.72310 | 39118 ft | 466 kts | 162° |
| 2026-05-07 17:21 | 54.30304 | 13.75917 | 39119 ft | 467 kts | 162° |
| 2026-05-07 17:21 | 54.24173 | 13.79579 | 38926 ft | 467 kts | 163° |
| 2026-05-07 17:22 | 54.21118 | 13.81400 | 38679 ft | 466 kts | 162° |
| 2026-05-07 17:22 | 54.18058 | 13.83219 | 38403 ft | 465 kts | 162° |
| 2026-05-07 17:22 | 54.14996 | 13.85037 | 37905 ft | 466 kts | 162° |
| 2026-05-07 17:22 | 54.11918 | 13.86861 | 37076 ft | 467 kts | 162° |
| 2026-05-07 17:23 | 54.08850 | 13.88678 | 36127 ft | 468 kts | 162° |
| 2026-05-07 17:23 | 54.05755 | 13.90506 | 35015 ft | 471 kts | 162° |
| 2026-05-07 17:23 | 54.02675 | 13.92321 | 34114 ft | 466 kts | 162° |
| 2026-05-07 17:23 | 53.99610 | 13.94109 | 32907 ft | 465 kts | 163° |
| 2026-05-07 17:24 | 53.96502 | 13.95449 | 31982 ft | 460 kts | 170° |
| 2026-05-07 17:24 | 53.93327 | 13.96100 | 31249 ft | 456 kts | 177° |
| 2026-05-07 17:24 | 53.90225 | 13.96080 | 30793 ft | 451 kts | 183° |
| 2026-05-07 17:24 | 53.87114 | 13.95655 | 30106 ft | 450 kts | 184° |
| 2026-05-07 17:25 | 53.84006 | 13.95234 | 29440 ft | 447 kts | 184° |
| 2026-05-07 17:25 | 53.80927 | 13.94834 | 28783 ft | 440 kts | 184° |
| 2026-05-07 17:25 | 53.77908 | 13.94450 | 28146 ft | 434 kts | 184° |
| 2026-05-07 17:25 | 53.74920 | 13.94073 | 27523 ft | 428 kts | 184° |
| 2026-05-07 17:26 | 53.71966 | 13.93702 | 26889 ft | 423 kts | 184° |
| 2026-05-07 17:26 | 53.69081 | 13.93340 | 26268 ft | 419 kts | 184° |
| 2026-05-07 17:26 | 53.66225 | 13.92980 | 25670 ft | 415 kts | 184° |
| 2026-05-07 17:26 | 53.63383 | 13.92543 | 25056 ft | 411 kts | 188° |
| 2026-05-07 17:27 | 53.61414 | 13.91936 | 24628 ft | 409 kts | 193° |
| 2026-05-07 17:27 | 53.58686 | 13.90630 | 23976 ft | 407 kts | 198° |
| 2026-05-07 17:27 | 53.55997 | 13.89214 | 23314 ft | 403 kts | 198° |
| 2026-05-07 17:27 | 53.53459 | 13.87894 | 22763 ft | 396 kts | 197° |
| 2026-05-07 17:28 | 53.50840 | 13.86547 | 22188 ft | 391 kts | 197° |
| 2026-05-07 17:28 | 53.48241 | 13.85217 | 21595 ft | 406 kts | 197° |
| 2026-05-07 17:28 | 53.45494 | 13.83816 | 20963 ft | 417 kts | 197° |
| 2026-05-07 17:28 | 53.42708 | 13.82402 | 20313 ft | 419 kts | 197° |
| 2026-05-07 17:29 | 53.39921 | 13.80989 | 19670 ft | 416 kts | 198° |
| 2026-05-07 17:29 | 53.37173 | 13.79599 | 19017 ft | 409 kts | 198° |
| 2026-05-07 17:29 | 53.34477 | 13.78237 | 18383 ft | 401 kts | 197° |
| 2026-05-07 17:29 | 53.31834 | 13.76903 | 17722 ft | 391 kts | 197° |
| 2026-05-07 17:30 | 53.29255 | 13.75602 | 17114 ft | 382 kts | 198° |
| 2026-05-07 17:30 | 53.26746 | 13.74338 | 16518 ft | 374 kts | 198° |
| 2026-05-07 17:30 | 53.24285 | 13.73097 | 15921 ft | 366 kts | 198° |
| 2026-05-07 17:30 | 53.21883 | 13.71888 | 15354 ft | 359 kts | 198° |
| 2026-05-07 17:31 | 53.19501 | 13.70690 | 14778 ft | 352 kts | 197° |
| 2026-05-07 17:31 | 53.17171 | 13.69521 | 14216 ft | 346 kts | 197° |
| 2026-05-07 17:31 | 53.14902 | 13.68386 | 13608 ft | 346 kts | 197° |
| 2026-05-07 17:31 | 53.12473 | 13.67479 | 13054 ft | 369 kts | 189° |
| 2026-05-07 17:32 | 53.09884 | 13.67119 | 12460 ft | 374 kts | 183° |
| 2026-05-07 17:32 | 53.07286 | 13.66902 | 11859 ft | 371 kts | 183° |
| 2026-05-07 17:32 | 53.04731 | 13.66673 | 11264 ft | 362 kts | 183° |
| 2026-05-07 17:32 | 53.03084 | 13.66518 | 10887 ft | 355 kts | 184° |
| 2026-05-07 17:33 | 53.00198 | 13.66236 | 10416 ft | 336 kts | 184° |
| 2026-05-07 17:33 | 52.97930 | 13.66011 | 10221 ft | 316 kts | 184° |
| 2026-05-07 17:33 | 52.95798 | 13.65799 | 10031 ft | 298 kts | 184° |
| 2026-05-07 17:33 | 52.93796 | 13.65292 | 9499 ft | 289 kts | 200° |
| 2026-05-07 17:34 | 52.92130 | 13.63555 | 9243 ft | 284 kts | 226° |
| 2026-05-07 17:34 | 52.91024 | 13.60843 | 9229 ft | 286 kts | 242° |
| 2026-05-07 17:34 | 52.90121 | 13.57913 | 9187 ft | 286 kts | 244° |
| 2026-05-07 17:34 | 52.89227 | 13.54971 | 9150 ft | 286 kts | 243° |
| 2026-05-07 17:35 | 52.88310 | 13.52053 | 9127 ft | 286 kts | 242° |
| 2026-05-07 17:35 | 52.87687 | 13.50127 | 9112 ft | 286 kts | 242° |
| 2026-05-07 17:35 | 52.86734 | 13.47235 | 9078 ft | 286 kts | 242° |
| 2026-05-07 17:35 | 52.85774 | 13.44357 | 9052 ft | 285 kts | 241° |
| 2026-05-07 17:36 | 52.84812 | 13.41485 | 9032 ft | 285 kts | 241° |
| 2026-05-07 17:36 | 52.83890 | 13.38742 | 9017 ft | 286 kts | 241° |
| 2026-05-07 17:36 | 52.83097 | 13.36381 | 8979 ft | 286 kts | 241° |
| 2026-05-07 17:36 | 52.82129 | 13.33504 | 8959 ft | 286 kts | 241° |
| 2026-05-07 17:37 | 52.81166 | 13.30642 | 8923 ft | 285 kts | 241° |
| 2026-05-07 17:37 | 52.80201 | 13.27776 | 8895 ft | 285 kts | 241° |
| 2026-05-07 17:37 | 52.79234 | 13.24905 | 8868 ft | 285 kts | 241° |
| 2026-05-07 17:37 | 52.78353 | 13.22378 | 8829 ft | 285 kts | 236° |
| 2026-05-07 17:38 | 52.76902 | 13.20113 | 8800 ft | 286 kts | 211° |
| 2026-05-07 17:38 | 52.75108 | 13.18682 | 8788 ft | 287 kts | 205° |
| 2026-05-07 17:38 | 52.73306 | 13.17303 | 8767 ft | 285 kts | 205° |
| 2026-05-07 17:38 | 52.71503 | 13.15926 | 8739 ft | 285 kts | 205° |
| 2026-05-07 17:39 | 52.69717 | 13.14560 | 8589 ft | 281 kts | 205° |
| 2026-05-07 17:39 | 52.67945 | 13.13204 | 8217 ft | 280 kts | 205° |
| 2026-05-07 17:39 | 52.66166 | 13.11840 | 8093 ft | 282 kts | 205° |
| 2026-05-07 17:39 | 52.64393 | 13.10480 | 8075 ft | 285 kts | 205° |
| 2026-05-07 17:40 | 52.62607 | 13.09112 | 8078 ft | 284 kts | 205° |
| 2026-05-07 17:40 | 52.60818 | 13.07740 | 8074 ft | 284 kts | 205° |
| 2026-05-07 17:40 | 52.59031 | 13.06369 | 8074 ft | 283 kts | 205° |
| 2026-05-07 17:40 | 52.57281 | 13.05029 | 8067 ft | 268 kts | 205° |
| 2026-05-07 17:41 | 52.55665 | 13.03791 | 8079 ft | 247 kts | 205° |
| 2026-05-07 17:41 | 52.54085 | 13.02584 | 8049 ft | 250 kts | 205° |
| 2026-05-07 17:41 | 52.52514 | 13.01376 | 7775 ft | 249 kts | 205° |
| 2026-05-07 17:41 | 52.50954 | 13.00161 | 7336 ft | 247 kts | 205° |
| 2026-05-07 17:42 | 52.49402 | 12.98953 | 6782 ft | 247 kts | 205° |
| 2026-05-07 17:42 | 52.47852 | 12.97744 | 6209 ft | 247 kts | 205° |
| 2026-05-07 17:42 | 52.46307 | 12.96536 | 5678 ft | 245 kts | 205° |
| 2026-05-07 17:42 | 52.44776 | 12.95331 | 5149 ft | 243 kts | 205° |
| 2026-05-07 17:43 | 52.43258 | 12.94127 | 4623 ft | 241 kts | 205° |
| 2026-05-07 17:43 | 52.41759 | 12.92931 | 4173 ft | 238 kts | 205° |
| 2026-05-07 17:43 | 52.40265 | 12.91776 | 4010 ft | 239 kts | 199° |
| 2026-05-07 17:43 | 52.38642 | 12.91302 | 3992 ft | 236 kts | 185° |
| 2026-05-07 17:44 | 52.37010 | 12.90987 | 3996 ft | 237 kts | 185° |
| 2026-05-07 17:44 | 52.35374 | 12.90670 | 3997 ft | 237 kts | 185° |
| 2026-05-07 17:44 | 52.33737 | 12.90357 | 3994 ft | 236 kts | 184° |
| 2026-05-07 17:44 | 52.32139 | 12.90662 | 3999 ft | 232 kts | 156° |
| 2026-05-07 17:45 | 52.30943 | 12.91791 | 3995 ft | 231 kts | 144° |
| 2026-05-07 17:45 | 52.29596 | 12.93205 | 3879 ft | 227 kts | 144° |
| 2026-05-07 17:45 | 52.28295 | 12.94575 | 3523 ft | 225 kts | 144° |
| 2026-05-07 17:45 | 52.27034 | 12.96054 | 3111 ft | 220 kts | 130° |
| 2026-05-07 17:46 | 52.26313 | 12.98252 | 3015 ft | 221 kts | 99° |
| 2026-05-07 17:46 | 52.26110 | 13.00711 | 2994 ft | 213 kts | 95° |
| 2026-05-07 17:46 | 52.25931 | 13.03005 | 2991 ft | 194 kts | 95° |
| 2026-05-07 17:46 | 52.25760 | 13.05133 | 3000 ft | 190 kts | 95° |
| 2026-05-07 17:47 | 52.25608 | 13.07261 | 2998 ft | 188 kts | 90° |
| 2026-05-07 17:47 | 52.25727 | 13.09373 | 3000 ft | 186 kts | 75° |
| 2026-05-07 17:47 | 52.26102 | 13.11370 | 3000 ft | 186 kts | 68° |
| 2026-05-07 17:47 | 52.26572 | 13.13350 | 3007 ft | 185 kts | 67° |
| 2026-05-07 17:48 | 52.27022 | 13.15238 | 2988 ft | 168 kts | 67° |
| 2026-05-07 17:48 | 52.27439 | 13.16991 | 2996 ft | 167 kts | 67° |
| 2026-05-07 17:48 | 52.27854 | 13.18731 | 2999 ft | 165 kts | 67° |
| 2026-05-07 17:48 | 52.28268 | 13.20472 | 2997 ft | 165 kts | 68° |
| 2026-05-07 17:49 | 52.28685 | 13.22223 | 3000 ft | 166 kts | 68° |
| 2026-05-07 17:49 | 52.29081 | 13.23985 | 2995 ft | 165 kts | 72° |
| 2026-05-07 17:49 | 52.29503 | 13.25730 | 2942 ft | 166 kts | 64° |
| 2026-05-07 17:49 | 52.29938 | 13.27477 | 2742 ft | 164 kts | 69° |
| 2026-05-07 17:50 | 52.30342 | 13.29198 | 2516 ft | 161 kts | 67° |
| 2026-05-07 17:50 | 52.30728 | 13.30817 | 2290 ft | 145 kts | 67° |
| 2026-05-07 17:50 | 52.31091 | 13.32339 | 2107 ft | 142 kts | 67° |
| 2026-05-07 17:50 | 52.31429 | 13.33766 | 1904 ft | 128 kts | 67° |
| 2026-05-07 17:51 | 52.31763 | 13.35162 | 1733 ft | 132 kts | 67° |
| 2026-05-07 17:51 | 52.32088 | 13.36536 | 1559 ft | 134 kts | 67° |
| 2026-05-07 17:51 | 52.32422 | 13.37932 | 1360 ft | 128 kts | 68° |
| 2026-05-07 17:51 | 52.32756 | 13.39339 | 1179 ft | 134 kts | 68° |
| 2026-05-07 17:52 | 52.33089 | 13.40740 | 1011 ft | 135 kts | 67° |
| 2026-05-07 17:52 | 52.33400 | 13.42048 | 815 ft | 130 kts | 68° |
| 2026-05-07 17:52 | 52.33734 | 13.43454 | 635 ft | 133 kts | 69° |
| 2026-05-07 17:52 | 52.34067 | 13.44842 | 480 ft | 135 kts | 68° |
| 2026-05-07 17:53 | 52.34412 | 13.46249 | 292 ft | 131 kts | 69° |
| 2026-05-07 17:53 | 52.34743 | 13.47663 | 164 ft | 130 kts | 70° |
| 2026-05-07 17:53 | 52.34984 | 13.48705 | 160 ft | 71 kts | 69° |
| 2026-05-07 17:53 | 52.35105 | 13.49153 | 160 ft | 18 kts | 54° |
| 2026-05-07 17:54 | 52.35177 | 13.49286 | 160 ft | 15 kts | 44° |
| 2026-05-07 17:54 | 52.35248 | 13.49383 | 160 ft | 10 kts | 39° |
| 2026-05-07 17:54 | 52.35304 | 13.49457 | 160 ft | 12 kts | 38° |
| 2026-05-07 17:54 | 52.35386 | 13.49560 | 160 ft | 18 kts | 38° |
| 2026-05-07 17:55 | 52.35468 | 13.49746 | 160 ft | 23 kts | 67° |
| 2026-05-07 17:55 | 52.35530 | 13.50001 | 160 ft | 26 kts | 69° |
| 2026-05-07 17:55 | 52.35591 | 13.50261 | 160 ft | 16 kts | 69° |
| 2026-05-07 17:55 | 52.35632 | 13.50435 | 160 ft | 16 kts | 68° |
| 2026-05-07 17:56 | 52.35661 | 13.50556 | 160 ft | 6 kts | 69° |
| 2026-05-07 17:56 | 52.35662 | 13.50560 | 160 ft | 0 kts | 69° |
| 2026-05-07 17:56 | 52.35663 | 13.50566 | 160 ft | 2 kts | 69° |
| 2026-05-07 17:56 | 52.35667 | 13.50581 | 160 ft | 0 kts | 69° |
| 2026-05-07 17:57 | 52.35667 | 13.50583 | 160 ft | 1 kts | 69° |
| 2026-05-07 17:57 | 52.35674 | 13.50611 | 153 ft | 5 kts | 69° |
| 2026-05-07 17:58 | 52.35693 | 13.50694 | 160 ft | 10 kts | 69° |
| 2026-05-07 17:58 | 52.35727 | 13.50800 | 160 ft | 12 kts | 48° |
| 2026-05-07 17:58 | 52.35816 | 13.50796 | 160 ft | 16 kts | 340° |
| 2026-05-07 17:58 | 52.35929 | 13.50726 | 160 ft | 19 kts | 339° |
| 2026-05-07 17:59 | 52.36010 | 13.50675 | 160 ft | 10 kts | 339° |
| 2026-05-07 17:59 | 52.36081 | 13.50631 | 160 ft | 12 kts | 339° |
| 2026-05-07 17:59 | 52.36129 | 13.50642 | 160 ft | 8 kts | 35° |
| 2026-05-07 17:59 | 52.36154 | 13.50709 | 160 ft | 2 kts | 65° |
| 2026-05-07 18:00 | 52.36161 | 13.50741 | 160 ft | 4 kts | 68° |
| 2026-05-07 18:00 | 52.36163 | 13.50747 | 160 ft | 0 kts | 68° |